sensor_id;sensor_type;location;lat;lon;timestamp;P1;durP1;ratioP1;P2;durP2;ratioP2
66145;SDS011;52948;60.040;30.320;2023-02-03T00:04:30;6.03;;;4.30;;
66145;SDS011;52948;60.040;30.320;2023-02-03T00:09:32;7.10;;;3.85;;
66145;SDS011;52948;60.040;30.320;2023-02-03T00:14:34;7.85;;;4.50;;
66145;SDS011;52948;60.040;30.320;2023-02-03T00:19:38;13.55;;;5.13;;
66145;SDS011;52948;60.040;30.320;2023-02-03T00:24:41;8.68;;;4.05;;
66145;SDS011;52948;60.040;30.320;2023-02-03T00:29:43;11.95;;;4.95;;
66145;SDS011;52948;60.040;30.320;2023-02-03T00:34:45;9.13;;;4.28;;
66145;SDS011;52948;60.040;30.320;2023-02-03T00:39:48;6.90;;;4.45;;
66145;SDS011;52948;60.040;30.320;2023-02-03T00:44:50;9.07;;;5.38;;
66145;SDS011;52948;60.040;30.320;2023-02-03T00:49:53;10.32;;;4.57;;
66145;SDS011;52948;60.040;30.320;2023-02-03T00:54:55;9.98;;;4.60;;
66145;SDS011;52948;60.040;30.320;2023-02-03T00:59:57;9.65;;;5.03;;
66145;SDS011;52948;60.040;30.320;2023-02-03T01:04:59;10.07;;;5.00;;
66145;SDS011;52948;60.040;30.320;2023-02-03T01:10:02;8.73;;;5.75;;
66145;SDS011;52948;60.040;30.320;2023-02-03T01:15:05;8.38;;;4.45;;
66145;SDS011;52948;60.040;30.320;2023-02-03T01:20:08;10.43;;;6.38;;
66145;SDS011;52948;60.040;30.320;2023-02-03T01:25:13;14.02;;;8.77;;
66145;SDS011;52948;60.040;30.320;2023-02-03T01:30:16;15.30;;;9.35;;
66145;SDS011;52948;60.040;30.320;2023-02-03T01:35:18;16.02;;;9.07;;
66145;SDS011;52948;60.040;30.320;2023-02-03T01:40:20;16.02;;;8.85;;
66145;SDS011;52948;60.040;30.320;2023-02-03T01:45:23;11.60;;;6.22;;
66145;SDS011;52948;60.040;30.320;2023-02-03T01:50:26;11.35;;;6.40;;
66145;SDS011;52948;60.040;30.320;2023-02-03T01:55:33;10.35;;;5.70;;
66145;SDS011;52948;60.040;30.320;2023-02-03T02:00:38;8.45;;;4.55;;
66145;SDS011;52948;60.040;30.320;2023-02-03T02:05:48;7.80;;;4.60;;
66145;SDS011;52948;60.040;30.320;2023-02-03T02:10:53;8.05;;;4.25;;
66145;SDS011;52948;60.040;30.320;2023-02-03T02:33:13;7.05;;;4.20;;
66145;SDS011;52948;60.040;30.320;2023-02-03T02:54:17;3.40;;;2.78;;
66145;SDS011;52948;60.040;30.320;2023-02-03T02:59:22;4.90;;;3.08;;
66145;SDS011;52948;60.040;30.320;2023-02-03T03:04:25;7.07;;;3.15;;
66145;SDS011;52948;60.040;30.320;2023-02-03T03:09:30;4.07;;;2.55;;
66145;SDS011;52948;60.040;30.320;2023-02-03T03:14:38;5.63;;;2.95;;
66145;SDS011;52948;60.040;30.320;2023-02-03T03:19:46;3.75;;;2.33;;
66145;SDS011;52948;60.040;30.320;2023-02-03T03:24:54;5.55;;;2.42;;
66145;SDS011;52948;60.040;30.320;2023-02-03T03:30:05;4.15;;;2.42;;
66145;SDS011;52948;60.040;30.320;2023-02-03T03:35:11;4.53;;;2.78;;
66145;SDS011;52948;60.040;30.320;2023-02-03T03:40:19;3.90;;;2.55;;
66145;SDS011;52948;60.040;30.320;2023-02-03T03:45:34;4.38;;;2.20;;
66145;SDS011;52948;60.040;30.320;2023-02-03T03:50:46;3.92;;;2.42;;
66145;SDS011;52948;60.040;30.320;2023-02-03T03:55:52;5.18;;;2.38;;
66145;SDS011;52948;60.040;30.320;2023-02-03T04:00:56;4.97;;;2.65;;
66145;SDS011;52948;60.040;30.320;2023-02-03T04:06:05;3.67;;;2.38;;
66145;SDS011;52948;60.040;30.320;2023-02-03T04:11:07;5.25;;;2.30;;
66145;SDS011;52948;60.040;30.320;2023-02-03T04:16:10;2.80;;;1.85;;
66145;SDS011;52948;60.040;30.320;2023-02-03T04:21:16;2.83;;;1.70;;
66145;SDS011;52948;60.040;30.320;2023-02-03T04:26:22;3.75;;;2.17;;
66145;SDS011;52948;60.040;30.320;2023-02-03T04:31:28;2.80;;;1.77;;
66145;SDS011;52948;60.040;30.320;2023-02-03T04:36:30;1.75;;;1.38;;
66145;SDS011;52948;60.040;30.320;2023-02-03T04:41:33;2.85;;;1.65;;
66145;SDS011;52948;60.040;30.320;2023-02-03T04:46:36;2.65;;;1.73;;
66145;SDS011;52948;60.040;30.320;2023-02-03T04:51:42;1.58;;;1.48;;
66145;SDS011;52948;60.040;30.320;2023-02-03T04:56:47;2.10;;;1.63;;
66145;SDS011;52948;60.040;30.320;2023-02-03T05:01:53;3.55;;;1.35;;
66145;SDS011;52948;60.040;30.320;2023-02-03T05:06:59;3.22;;;1.42;;
66145;SDS011;52948;60.040;30.320;2023-02-03T05:12:06;2.08;;;1.60;;
66145;SDS011;52948;60.040;30.320;2023-02-03T05:17:08;1.85;;;1.70;;
66145;SDS011;52948;60.040;30.320;2023-02-03T05:22:10;1.25;;;1.10;;
66145;SDS011;52948;60.040;30.320;2023-02-03T05:27:12;2.25;;;1.60;;
66145;SDS011;52948;60.040;30.320;2023-02-03T05:32:15;2.65;;;1.52;;
66145;SDS011;52948;60.040;30.320;2023-02-03T05:42:38;3.28;;;1.45;;
66145;SDS011;52948;60.040;30.320;2023-02-03T05:47:40;1.63;;;1.52;;
66145;SDS011;52948;60.040;30.320;2023-02-03T05:52:42;3.00;;;1.80;;
66145;SDS011;52948;60.040;30.320;2023-02-03T05:57:48;3.92;;;1.30;;
66145;SDS011;52948;60.040;30.320;2023-02-03T06:02:58;2.90;;;2.03;;
66145;SDS011;52948;60.040;30.320;2023-02-03T06:08:01;2.25;;;1.35;;
66145;SDS011;52948;60.040;30.320;2023-02-03T06:13:10;2.03;;;1.33;;
66145;SDS011;52948;60.040;30.320;2023-02-03T06:18:17;2.50;;;1.45;;
66145;SDS011;52948;60.040;30.320;2023-02-03T06:23:20;3.33;;;1.67;;
66145;SDS011;52948;60.040;30.320;2023-02-03T06:28:47;4.57;;;2.17;;
66145;SDS011;52948;60.040;30.320;2023-02-03T06:33:49;2.05;;;1.60;;
66145;SDS011;52948;60.040;30.320;2023-02-03T06:38:52;2.50;;;1.40;;
66145;SDS011;52948;60.040;30.320;2023-02-03T06:43:54;2.28;;;1.38;;
66145;SDS011;52948;60.040;30.320;2023-02-03T06:48:57;3.03;;;1.60;;
66145;SDS011;52948;60.040;30.320;2023-02-03T06:53:59;1.35;;;1.10;;
66145;SDS011;52948;60.040;30.320;2023-02-03T06:59:01;3.15;;;1.67;;
66145;SDS011;52948;60.040;30.320;2023-02-03T07:04:04;3.28;;;1.35;;
66145;SDS011;52948;60.040;30.320;2023-02-03T07:09:06;2.47;;;2.17;;
66145;SDS011;52948;60.040;30.320;2023-02-03T07:14:09;3.75;;;1.85;;
66145;SDS011;52948;60.040;30.320;2023-02-03T07:19:11;2.67;;;1.65;;
66145;SDS011;52948;60.040;30.320;2023-02-03T07:24:14;2.25;;;1.23;;
66145;SDS011;52948;60.040;30.320;2023-02-03T07:29:16;1.60;;;1.50;;
66145;SDS011;52948;60.040;30.320;2023-02-03T07:34:18;1.92;;;1.30;;
66145;SDS011;52948;60.040;30.320;2023-02-03T07:39:20;1.60;;;1.30;;
66145;SDS011;52948;60.040;30.320;2023-02-03T07:44:23;2.08;;;1.20;;
66145;SDS011;52948;60.040;30.320;2023-02-03T07:49:25;3.00;;;1.50;;
66145;SDS011;52948;60.040;30.320;2023-02-03T07:54:27;2.28;;;1.40;;
66145;SDS011;52948;60.040;30.320;2023-02-03T07:59:30;2.45;;;1.50;;
66145;SDS011;52948;60.040;30.320;2023-02-03T08:04:32;4.38;;;1.73;;
66145;SDS011;52948;60.040;30.320;2023-02-03T08:09:40;2.28;;;1.63;;
66145;SDS011;52948;60.040;30.320;2023-02-03T08:14:42;2.47;;;1.63;;
66145;SDS011;52948;60.040;30.320;2023-02-03T08:19:44;3.78;;;1.52;;
66145;SDS011;52948;60.040;30.320;2023-02-03T08:24:47;4.18;;;2.08;;
66145;SDS011;52948;60.040;30.320;2023-02-03T08:29:49;2.22;;;1.50;;
66145;SDS011;52948;60.040;30.320;2023-02-03T08:34:52;3.63;;;1.80;;
66145;SDS011;52948;60.040;30.320;2023-02-03T08:39:54;2.67;;;1.60;;
66145;SDS011;52948;60.040;30.320;2023-02-03T08:44:57;3.00;;;1.63;;
66145;SDS011;52948;60.040;30.320;2023-02-03T08:49:59;3.22;;;1.75;;
66145;SDS011;52948;60.040;30.320;2023-02-03T08:55:01;2.67;;;1.73;;
66145;SDS011;52948;60.040;30.320;2023-02-03T09:00:04;3.80;;;1.98;;
66145;SDS011;52948;60.040;30.320;2023-02-03T09:05:07;4.20;;;2.55;;
66145;SDS011;52948;60.040;30.320;2023-02-03T09:10:09;4.35;;;2.08;;
66145;SDS011;52948;60.040;30.320;2023-02-03T09:15:12;3.40;;;2.13;;
66145;SDS011;52948;60.040;30.320;2023-02-03T09:20:18;4.43;;;2.50;;
66145;SDS011;52948;60.040;30.320;2023-02-03T09:25:20;3.85;;;2.70;;
66145;SDS011;52948;60.040;30.320;2023-02-03T09:30:26;5.22;;;2.90;;
66145;SDS011;52948;60.040;30.320;2023-02-03T09:35:32;5.88;;;3.13;;
66145;SDS011;52948;60.040;30.320;2023-02-03T09:40:34;4.53;;;3.17;;
66145;SDS011;52948;60.040;30.320;2023-02-03T09:45:38;4.75;;;2.92;;
66145;SDS011;52948;60.040;30.320;2023-02-03T09:50:44;5.30;;;3.70;;
66145;SDS011;52948;60.040;30.320;2023-02-03T09:55:47;4.00;;;2.97;;
66145;SDS011;52948;60.040;30.320;2023-02-03T10:00:50;5.28;;;2.22;;
66145;SDS011;52948;60.040;30.320;2023-02-03T10:22:23;5.95;;;2.58;;
66145;SDS011;52948;60.040;30.320;2023-02-03T10:27:28;4.10;;;2.53;;
66145;SDS011;52948;60.040;30.320;2023-02-03T10:32:33;3.45;;;2.70;;
66145;SDS011;52948;60.040;30.320;2023-02-03T10:37:40;3.85;;;2.28;;
66145;SDS011;52948;60.040;30.320;2023-02-03T10:42:45;3.83;;;2.23;;
66145;SDS011;52948;60.040;30.320;2023-02-03T10:48:10;3.60;;;2.22;;
66145;SDS011;52948;60.040;30.320;2023-02-03T10:58:33;3.90;;;2.30;;
66145;SDS011;52948;60.040;30.320;2023-02-03T11:03:40;2.85;;;1.77;;
66145;SDS011;52948;60.040;30.320;2023-02-03T11:08:44;5.40;;;2.22;;
66145;SDS011;52948;60.040;30.320;2023-02-03T11:13:51;5.10;;;2.65;;
66145;SDS011;52948;60.040;30.320;2023-02-03T11:19:09;3.58;;;2.22;;
66145;SDS011;52948;60.040;30.320;2023-02-03T11:29:26;3.65;;;2.00;;
66145;SDS011;52948;60.040;30.320;2023-02-03T11:34:34;5.53;;;2.00;;
66145;SDS011;52948;60.040;30.320;2023-02-03T11:39:38;3.38;;;2.40;;
66145;SDS011;52948;60.040;30.320;2023-02-03T11:44:41;3.35;;;2.15;;
66145;SDS011;52948;60.040;30.320;2023-02-03T12:00:45;4.55;;;2.53;;
66145;SDS011;52948;60.040;30.320;2023-02-03T12:16:52;4.38;;;2.30;;
66145;SDS011;52948;60.040;30.320;2023-02-03T12:27:40;4.90;;;2.28;;
66145;SDS011;52948;60.040;30.320;2023-02-03T12:32:54;4.00;;;2.30;;
66145;SDS011;52948;60.040;30.320;2023-02-03T12:43:25;4.13;;;2.47;;
66145;SDS011;52948;60.040;30.320;2023-02-03T12:48:42;6.07;;;2.40;;
66145;SDS011;52948;60.040;30.320;2023-02-03T12:54:02;4.63;;;2.60;;
66145;SDS011;52948;60.040;30.320;2023-02-03T12:59:14;6.53;;;3.05;;
66145;SDS011;52948;60.040;30.320;2023-02-03T13:19:44;6.25;;;2.58;;
66145;SDS011;52948;60.040;30.320;2023-02-03T13:24:55;3.38;;;2.53;;
66145;SDS011;52948;60.040;30.320;2023-02-03T13:40:50;3.75;;;2.42;;
66145;SDS011;52948;60.040;30.320;2023-02-03T13:45:59;3.45;;;2.15;;
66145;SDS011;52948;60.040;30.320;2023-02-03T13:51:04;3.90;;;2.22;;
66145;SDS011;52948;60.040;30.320;2023-02-03T14:11:39;3.47;;;2.38;;
66145;SDS011;52948;60.040;30.320;2023-02-03T14:16:46;6.35;;;2.92;;
66145;SDS011;52948;60.040;30.320;2023-02-03T14:22:01;5.85;;;2.78;;
66145;SDS011;52948;60.040;30.320;2023-02-03T14:32:25;5.00;;;3.15;;
66145;SDS011;52948;60.040;30.320;2023-02-03T14:37:50;6.78;;;3.22;;
66145;SDS011;52948;60.040;30.320;2023-02-03T14:59:01;5.72;;;4.22;;
66145;SDS011;52948;60.040;30.320;2023-02-03T15:04:27;4.57;;;3.58;;
66145;SDS011;52948;60.040;30.320;2023-02-03T15:09:40;6.05;;;3.72;;
66145;SDS011;52948;60.040;30.320;2023-02-03T15:19:49;4.95;;;3.03;;
66145;SDS011;52948;60.040;30.320;2023-02-03T15:24:52;8.40;;;3.00;;
66145;SDS011;52948;60.040;30.320;2023-02-03T15:30:26;3.50;;;2.90;;
66145;SDS011;52948;60.040;30.320;2023-02-03T15:35:30;5.80;;;2.22;;
66145;SDS011;52948;60.040;30.320;2023-02-03T15:40:40;5.30;;;3.35;;
66145;SDS011;52948;60.040;30.320;2023-02-03T15:45:57;2.42;;;2.05;;
66145;SDS011;52948;60.040;30.320;2023-02-03T15:51:34;5.70;;;2.75;;
66145;SDS011;52948;60.040;30.320;2023-02-03T15:57:18;9.52;;;5.20;;
66145;SDS011;52948;60.040;30.320;2023-02-03T16:02:20;11.82;;;6.00;;
66145;SDS011;52948;60.040;30.320;2023-02-03T16:07:27;8.38;;;4.35;;
66145;SDS011;52948;60.040;30.320;2023-02-03T16:12:30;7.47;;;4.03;;
66145;SDS011;52948;60.040;30.320;2023-02-03T16:17:37;9.43;;;4.63;;
66145;SDS011;52948;60.040;30.320;2023-02-03T16:22:44;8.93;;;4.18;;
66145;SDS011;52948;60.040;30.320;2023-02-03T16:27:57;6.53;;;3.65;;
66145;SDS011;52948;60.040;30.320;2023-02-03T16:33:22;5.45;;;3.35;;
66145;SDS011;52948;60.040;30.320;2023-02-03T16:38:46;4.47;;;3.00;;
66145;SDS011;52948;60.040;30.320;2023-02-03T16:44:10;7.95;;;2.50;;
66145;SDS011;52948;60.040;30.320;2023-02-03T16:49:31;4.90;;;2.83;;
66145;SDS011;52948;60.040;30.320;2023-02-03T16:54:51;3.47;;;2.58;;
66145;SDS011;52948;60.040;30.320;2023-02-03T17:00:19;5.50;;;2.30;;
66145;SDS011;52948;60.040;30.320;2023-02-03T17:05:25;5.45;;;2.53;;
66145;SDS011;52948;60.040;30.320;2023-02-03T17:10:27;5.03;;;2.80;;
66145;SDS011;52948;60.040;30.320;2023-02-03T17:15:38;7.82;;;2.38;;
66145;SDS011;52948;60.040;30.320;2023-02-03T17:20:42;4.05;;;2.88;;
66145;SDS011;52948;60.040;30.320;2023-02-03T17:25:45;6.15;;;2.70;;
66145;SDS011;52948;60.040;30.320;2023-02-03T17:30:55;9.27;;;4.72;;
66145;SDS011;52948;60.040;30.320;2023-02-03T17:36:09;11.98;;;4.35;;
66145;SDS011;52948;60.040;30.320;2023-02-03T17:41:14;8.52;;;4.03;;
66145;SDS011;52948;60.040;30.320;2023-02-03T17:46:18;9.07;;;4.25;;
66145;SDS011;52948;60.040;30.320;2023-02-03T17:51:23;7.25;;;3.45;;
66145;SDS011;52948;60.040;30.320;2023-02-03T17:56:27;8.80;;;4.28;;
66145;SDS011;52948;60.040;30.320;2023-02-03T18:01:29;4.70;;;2.95;;
66145;SDS011;52948;60.040;30.320;2023-02-03T18:06:32;7.00;;;3.67;;
66145;SDS011;52948;60.040;30.320;2023-02-03T18:11:36;4.97;;;2.85;;
66145;SDS011;52948;60.040;30.320;2023-02-03T18:16:39;8.68;;;4.13;;
66145;SDS011;52948;60.040;30.320;2023-02-03T18:21:42;4.95;;;3.08;;
66145;SDS011;52948;60.040;30.320;2023-02-03T18:26:46;5.07;;;2.85;;
66145;SDS011;52948;60.040;30.320;2023-02-03T18:31:49;7.03;;;4.10;;
66145;SDS011;52948;60.040;30.320;2023-02-03T18:36:52;7.93;;;3.60;;
66145;SDS011;52948;60.040;30.320;2023-02-03T18:41:54;6.55;;;3.97;;
66145;SDS011;52948;60.040;30.320;2023-02-03T18:46:56;6.80;;;2.92;;
66145;SDS011;52948;60.040;30.320;2023-02-03T18:52:10;5.15;;;3.47;;
66145;SDS011;52948;60.040;30.320;2023-02-03T18:57:16;4.43;;;2.83;;
66145;SDS011;52948;60.040;30.320;2023-02-03T19:02:18;8.65;;;3.78;;
66145;SDS011;52948;60.040;30.320;2023-02-03T19:07:22;12.48;;;3.42;;
66145;SDS011;52948;60.040;30.320;2023-02-03T19:12:24;7.13;;;2.70;;
66145;SDS011;52948;60.040;30.320;2023-02-03T19:17:28;6.68;;;3.17;;
66145;SDS011;52948;60.040;30.320;2023-02-03T19:22:31;6.90;;;3.40;;
66145;SDS011;52948;60.040;30.320;2023-02-03T19:27:34;5.47;;;3.30;;
66145;SDS011;52948;60.040;30.320;2023-02-03T19:32:36;3.80;;;2.85;;
66145;SDS011;52948;60.040;30.320;2023-02-03T19:37:38;2.75;;;1.73;;
66145;SDS011;52948;60.040;30.320;2023-02-03T19:42:40;7.60;;;2.63;;
66145;SDS011;52948;60.040;30.320;2023-02-03T19:47:43;1.00;;;1.00;;
66145;SDS011;52948;60.040;30.320;2023-02-03T19:52:50;4.18;;;2.30;;
66145;SDS011;52948;60.040;30.320;2023-02-03T19:57:53;3.17;;;1.65;;
66145;SDS011;52948;60.040;30.320;2023-02-03T20:02:55;3.38;;;1.85;;
66145;SDS011;52948;60.040;30.320;2023-02-03T20:07:58;5.28;;;2.80;;
66145;SDS011;52948;60.040;30.320;2023-02-03T20:13:02;2.22;;;1.95;;
66145;SDS011;52948;60.040;30.320;2023-02-03T20:18:05;4.55;;;1.83;;
66145;SDS011;52948;60.040;30.320;2023-02-03T20:23:12;3.42;;;1.83;;
66145;SDS011;52948;60.040;30.320;2023-02-03T20:28:14;2.40;;;1.77;;
66145;SDS011;52948;60.040;30.320;2023-02-03T20:33:18;2.92;;;2.17;;
66145;SDS011;52948;60.040;30.320;2023-02-03T20:38:20;4.68;;;2.35;;
66145;SDS011;52948;60.040;30.320;2023-02-03T20:43:24;3.63;;;2.35;;
66145;SDS011;52948;60.040;30.320;2023-02-03T20:48:28;3.70;;;1.90;;
66145;SDS011;52948;60.040;30.320;2023-02-03T20:53:31;3.85;;;1.70;;
66145;SDS011;52948;60.040;30.320;2023-02-03T20:58:33;3.10;;;1.98;;
66145;SDS011;52948;60.040;30.320;2023-02-03T21:03:37;4.18;;;1.70;;
66145;SDS011;52948;60.040;30.320;2023-02-03T21:09:07;3.00;;;2.08;;
66145;SDS011;52948;60.040;30.320;2023-02-03T21:14:28;3.30;;;2.05;;
66145;SDS011;52948;60.040;30.320;2023-02-03T21:19:42;3.40;;;1.77;;
66145;SDS011;52948;60.040;30.320;2023-02-03T21:24:47;3.27;;;1.43;;
66145;SDS011;52948;60.040;30.320;2023-02-03T21:29:51;7.82;;;2.13;;
66145;SDS011;52948;60.040;30.320;2023-02-03T21:34:56;3.08;;;2.05;;
66145;SDS011;52948;60.040;30.320;2023-02-03T21:39:59;3.67;;;2.13;;
66145;SDS011;52948;60.040;30.320;2023-02-03T21:45:01;2.97;;;2.10;;
66145;SDS011;52948;60.040;30.320;2023-02-03T21:50:08;2.40;;;1.70;;
66145;SDS011;52948;60.040;30.320;2023-02-03T21:55:35;2.85;;;1.83;;
66145;SDS011;52948;60.040;30.320;2023-02-03T22:00:39;3.92;;;2.40;;
66145;SDS011;52948;60.040;30.320;2023-02-03T22:05:43;4.43;;;1.92;;
66145;SDS011;52948;60.040;30.320;2023-02-03T22:10:46;3.05;;;1.55;;
66145;SDS011;52948;60.040;30.320;2023-02-03T22:15:49;3.58;;;2.22;;
66145;SDS011;52948;60.040;30.320;2023-02-03T22:20:51;2.92;;;1.48;;
66145;SDS011;52948;60.040;30.320;2023-02-03T22:25:54;4.72;;;1.95;;
66145;SDS011;52948;60.040;30.320;2023-02-03T22:30:56;3.88;;;1.60;;
66145;SDS011;52948;60.040;30.320;2023-02-03T22:35:59;2.58;;;1.83;;
66145;SDS011;52948;60.040;30.320;2023-02-03T22:41:01;6.03;;;1.85;;
66145;SDS011;52948;60.040;30.320;2023-02-03T22:46:04;2.88;;;1.02;;
66145;SDS011;52948;60.040;30.320;2023-02-03T22:51:07;2.78;;;2.17;;
66145;SDS011;52948;60.040;30.320;2023-02-03T22:56:11;2.28;;;1.50;;
66145;SDS011;52948;60.040;30.320;2023-02-03T23:01:13;3.58;;;1.77;;
66145;SDS011;52948;60.040;30.320;2023-02-03T23:06:15;2.92;;;1.70;;
66145;SDS011;52948;60.040;30.320;2023-02-03T23:11:17;3.10;;;1.45;;
66145;SDS011;52948;60.040;30.320;2023-02-03T23:16:20;3.05;;;1.73;;
66145;SDS011;52948;60.040;30.320;2023-02-03T23:21:22;3.72;;;1.33;;
66145;SDS011;52948;60.040;30.320;2023-02-03T23:26:28;2.50;;;2.30;;
66145;SDS011;52948;60.040;30.320;2023-02-03T23:31:34;3.22;;;2.10;;
66145;SDS011;52948;60.040;30.320;2023-02-03T23:36:36;3.22;;;2.10;;
66145;SDS011;52948;60.040;30.320;2023-02-03T23:41:42;2.90;;;1.45;;
66145;SDS011;52948;60.040;30.320;2023-02-03T23:46:48;2.72;;;1.73;;
66145;SDS011;52948;60.040;30.320;2023-02-03T23:51:55;2.70;;;1.98;;
66145;SDS011;52948;60.040;30.320;2023-02-03T23:56:57;3.38;;;1.80;;
